Time;durP1;ratioP1;P1;durP2;ratioP2;P2;SDS_P1;SDS_P2;PMS_P1;PMS_P2;Temp;Humidity;BMP_temperature;BMP_pressure;BME280_temperature;BME280_humidity;BME280_pressure;Samples;Min_cycle;Max_cycle;Signal;HPM_P1;HPM_P2
2021/10/06 00:00:18;;;;;;;4.32;1.80;;;12.60;76.80;;;;;;5037647;28;20036;-82
2021/10/06 00:02:44;;;;;;;8.43;2.17;;;12.60;76.80;;;;;;5054108;28;20039;-82
2021/10/06 00:05:10;;;;;;;4.10;2.03;;;12.50;77.10;;;;;;5034773;28;20091;-82
2021/10/06 00:07:36;;;;;;;10.13;2.13;;;12.40;77.60;;;;;;5035962;28;20021;-82
2021/10/06 00:10:05;;;;;;;6.20;1.80;;;12.30;77.50;;;;;;5036064;28;20021;-82
2021/10/06 00:12:30;;;;;;;4.72;2.30;;;12.40;77.60;;;;;;5036275;28;20509;-82
2021/10/06 00:14:56;;;;;;;7.88;1.88;;;12.40;77.60;;;;;;5035950;28;20084;-82
2021/10/06 00:17:23;;;;;;;6.13;2.00;;;12.30;77.40;;;;;;5035891;28;20041;-82
2021/10/06 00:19:48;;;;;;;8.18;2.08;;;12.30;77.40;;;;;;5035866;28;20037;-82
2021/10/06 00:22:14;;;;;;;5.75;2.17;;;12.20;77.60;;;;;;5034128;28;20128;-82
2021/10/06 00:24:40;;;;;;;6.00;1.70;;;12.20;77.90;;;;;;5050769;28;20438;-82
2021/10/06 00:27:05;;;;;;;5.90;1.63;;;12.20;78.10;;;;;;5074270;28;20028;-82
2021/10/06 00:29:31;;;;;;;4.57;1.50;;;12.10;78.10;;;;;;5075627;28;20103;-82
2021/10/06 00:31:56;;;;;;;7.43;1.73;;;12.10;78.30;;;;;;5075543;28;20059;-82
2021/10/06 00:34:22;;;;;;;2.58;1.48;;;12.10;78.40;;;;;;5039231;28;20056;-81
2021/10/06 00:36:48;;;;;;;5.00;1.50;;;12.10;78.40;;;;;;5035557;28;20846;-81
2021/10/06 00:39:13;;;;;;;6.32;3.03;;;12.10;78.30;;;;;;5035487;28;20025;-82
2021/10/06 00:41:39;;;;;;;6.82;1.65;;;12.10;78.30;;;;;;5035534;28;20099;-81
2021/10/06 00:44:05;;;;;;;4.10;1.55;;;12.10;78.30;;;;;;5035562;28;20048;-82
2021/10/06 00:46:30;;;;;;;7.57;2.28;;;12.10;78.20;;;;;;5035366;28;20121;-81
2021/10/06 00:48:56;;;;;;;6.90;1.90;;;12.10;78.20;;;;;;5035147;28;20176;-81
2021/10/06 00:51:22;;;;;;;10.98;1.60;;;12.10;78.30;;;;;;5035262;28;20109;-81
2021/10/06 00:53:47;;;;;;;5.97;1.58;;;12.00;78.50;;;;;;5034108;28;20026;-81
2021/10/06 00:56:18;;;;;;;5.70;1.75;;;11.90;78.60;;;;;;5035347;28;20025;-81
2021/10/06 00:58:44;;;;;;;7.43;1.83;;;11.90;78.80;;;;;;5035178;28;20033;-81
2021/10/06 01:01:10;;;;;;;4.57;2.10;;;11.90;78.70;;;;;;5035266;28;20035;-81
2021/10/06 01:03:37;;;;;;;4.88;1.50;;;11.90;78.80;;;;;;5036165;28;20593;-81
2021/10/06 01:06:02;;;;;;;6.15;1.73;;;11.90;78.80;;;;;;5038146;28;20120;-81
2021/10/06 01:08:28;;;;;;;10.93;1.80;;;11.90;78.80;;;;;;5039205;28;20077;-81
2021/10/06 01:10:54;;;;;;;11.50;1.95;;;11.90;78.70;;;;;;5039389;28;20022;-81
2021/10/06 01:13:22;;;;;;;10.43;2.45;;;11.80;78.90;;;;;;5039360;28;20036;-81
2021/10/06 01:15:50;;;;;;;5.60;1.42;;;11.80;79.10;;;;;;5039080;28;20109;-81
2021/10/06 01:18:16;;;;;;;7.90;2.00;;;11.80;79.00;;;;;;5038954;28;20037;-81
2021/10/06 01:20:42;;;;;;;8.88;1.98;;;11.80;79.00;;;;;;5045914;28;20028;-81
2021/10/06 01:23:08;;;;;;;5.65;1.42;;;11.80;78.90;;;;;;5057607;28;20025;-81
2021/10/06 01:25:34;;;;;;;6.13;2.00;;;11.80;78.90;;;;;;5056966;28;20029;-81
2021/10/06 01:28:00;;;;;;;5.68;1.50;;;11.80;78.90;;;;;;5058822;28;20483;-81
2021/10/06 01:30:28;;;;;;;9.77;2.28;;;11.80;79.00;;;;;;5058777;28;20025;-81
2021/10/06 01:32:53;;;;;;;4.75;1.10;;;11.70;79.30;;;;;;5057268;28;20093;-81
2021/10/06 01:35:19;;;;;;;11.60;2.15;;;11.70;79.40;;;;;;5042788;28;20456;-81
2021/10/06 01:37:45;;;;;;;3.38;1.33;;;11.70;79.40;;;;;;5038226;28;20030;-81
2021/10/06 01:40:15;;;;;;;9.50;1.80;;;11.70;79.30;;;;;;5038552;28;20033;-81
2021/10/06 01:42:41;;;;;;;7.82;1.98;;;11.70;79.40;;;;;;5038926;28;20021;-81
2021/10/06 01:45:13;;;;;;;3.75;1.33;;;11.70;79.40;;;;;;5038898;28;20040;-80
2021/10/06 01:47:39;;;;;;;7.88;1.52;;;11.70;79.40;;;;;;5038336;28;20052;-81
2021/10/06 01:50:05;;;;;;;4.35;1.17;;;11.70;79.30;;;;;;5040883;28;20021;-81
2021/10/06 01:52:31;;;;;;;2.45;1.00;;;11.70;79.20;;;;;;5038486;28;20025;-80
2021/10/06 01:54:56;;;;;;;6.63;1.63;;;11.70;79.20;;;;;;5038497;28;20024;-81
2021/10/06 01:57:22;;;;;;;7.97;2.15;;;11.60;79.50;;;;;;5038510;28;20029;-81
2021/10/06 01:59:48;;;;;;;10.50;1.60;;;11.60;79.60;;;;;;5040400;28;20033;-81
2021/10/06 02:02:15;;;;;;;6.43;1.83;;;11.60;79.50;;;;;;5038532;28;20483;-80
2021/10/06 02:04:41;;;;;;;8.80;1.70;;;11.60;79.50;;;;;;5038447;28;20479;-81
2021/10/06 02:07:07;;;;;;;11.85;2.05;;;11.60;79.40;;;;;;5036849;28;20044;-81
2021/10/06 02:09:33;;;;;;;9.77;1.70;;;11.60;79.40;;;;;;5038266;28;20030;-81
2021/10/06 02:11:58;;;;;;;10.63;1.83;;;11.60;79.30;;;;;;5038110;28;20014;-81
2021/10/06 02:14:24;;;;;;;10.10;1.95;;;11.50;79.40;;;;;;5038242;28;20029;-81
2021/10/06 02:16:50;;;;;;;6.93;2.17;;;11.50;79.50;;;;;;5037264;28;20024;-81
2021/10/06 02:19:15;;;;;;;7.70;1.63;;;11.50;79.60;;;;;;5036699;28;20399;-80
2021/10/06 02:21:43;;;;;;;8.32;1.95;;;11.50;79.50;;;;;;5038062;28;20080;-80
2021/10/06 02:24:09;;;;;;;5.82;1.92;;;11.50;79.60;;;;;;5044491;28;20025;-80
2021/10/06 02:26:35;;;;;;;6.28;1.55;;;11.50;79.60;;;;;;5077914;28;20035;-80
2021/10/06 02:29:00;;;;;;;4.90;1.55;;;11.50;79.70;;;;;;5058029;28;20550;-80
2021/10/06 02:31:26;;;;;;;6.03;1.48;;;11.40;79.70;;;;;;5037731;28;20536;-80
2021/10/06 02:33:52;;;;;;;11.48;1.55;;;11.40;79.80;;;;;;5037818;28;20037;-80
2021/10/06 02:36:17;;;;;;;3.92;1.70;;;11.40;79.80;;;;;;5037770;28;20093;-79
2021/10/06 02:38:43;;;;;;;10.38;1.75;;;11.40;79.90;;;;;;5037652;28;20033;-80
2021/10/06 02:41:08;;;;;;;7.13;1.83;;;11.40;80.00;;;;;;5037547;28;20030;-80
2021/10/06 02:43:34;;;;;;;4.70;1.30;;;11.40;80.00;;;;;;5037693;28;20030;-80
2021/10/06 02:46:00;;;;;;;4.97;1.70;;;11.40;79.80;;;;;;5037287;28;20036;-80
2021/10/06 02:48:25;;;;;;;7.60;2.60;;;11.40;79.80;;;;;;5052391;28;20049;-80
2021/10/06 02:50:51;;;;;;;8.27;1.90;;;11.30;80.00;;;;;;5054574;28;20078;-80
2021/10/06 02:53:17;;;;;;;6.88;1.50;;;11.40;80.00;;;;;;5057494;28;20021;-80
2021/10/06 02:55:43;;;;;;;6.70;1.80;;;11.40;79.80;;;;;;5057232;28;20032;-81
2021/10/06 02:58:09;;;;;;;3.58;1.33;;;11.40;79.90;;;;;;5056172;28;20025;-81
2021/10/06 03:00:35;;;;;;;8.40;1.60;;;11.40;79.80;;;;;;5047999;28;20018;-81
2021/10/06 03:03:00;;;;;;;9.00;1.58;;;11.40;79.80;;;;;;5035988;28;20519;-80
2021/10/06 03:05:26;;;;;;;4.03;1.38;;;11.40;79.80;;;;;;5037124;28;20032;-81
2021/10/06 03:07:52;;;;;;;2.22;1.13;;;11.30;79.90;;;;;;5037150;28;20063;-80
2021/10/06 03:10:18;;;;;;;4.78;1.55;;;11.30;80.00;;;;;;5031364;28;20055;-81
2021/10/06 03:12:43;;;;;;;14.55;2.05;;;11.30;79.90;;;;;;5037116;28;20116;-80
2021/10/06 03:15:10;;;;;;;4.18;1.20;;;11.30;79.80;;;;;;5037078;28;20032;-80
2021/10/06 03:17:36;;;;;;;6.00;1.55;;;11.30;79.90;;;;;;5035647;28;20033;-81
2021/10/06 03:20:04;;;;;;;4.95;1.38;;;11.30;79.90;;;;;;5036850;28;20071;-80
2021/10/06 03:22:29;;;;;;;5.35;1.77;;;11.30;79.90;;;;;;5049437;28;20064;-80
2021/10/06 03:24:55;;;;;;;9.85;1.50;;;11.20;79.90;;;;;;5064829;28;20025;-81
2021/10/06 03:27:21;;;;;;;7.35;1.45;;;11.30;79.90;;;;;;5075661;28;20106;-80
2021/10/06 03:29:46;;;;;;;6.55;1.38;;;11.20;80.20;;;;;;5050749;28;20491;-81
2021/10/06 03:32:13;;;;;;;6.20;1.77;;;11.20;80.30;;;;;;5036539;28;20040;-80
2021/10/06 03:34:39;;;;;;;4.53;1.60;;;11.20;80.30;;;;;;5036414;28;20495;-80
2021/10/06 03:37:04;;;;;;;3.45;1.40;;;11.20;80.30;;;;;;5036541;28;20044;-80
2021/10/06 03:39:30;;;;;;;5.60;1.50;;;11.20;80.20;;;;;;5036580;28;20075;-80
2021/10/06 03:41:56;;;;;;;7.93;1.52;;;11.20;80.10;;;;;;5036507;28;20026;-80
2021/10/06 03:44:21;;;;;;;5.57;1.48;;;11.20;80.10;;;;;;5036607;28;20029;-80
2021/10/06 03:46:47;;;;;;;10.43;2.05;;;11.20;80.20;;;;;;5036144;28;20029;-80
2021/10/06 03:49:13;;;;;;;6.65;1.55;;;11.20;80.30;;;;;;5036284;28;20097;-80
2021/10/06 03:51:38;;;;;;;4.63;1.15;;;11.20;80.30;;;;;;5036008;28;20036;-80
2021/10/06 03:54:04;;;;;;;5.70;1.85;;;11.10;80.20;;;;;;5035885;28;20060;-80
2021/10/06 03:56:30;;;;;;;7.55;1.45;;;11.10;80.30;;;;;;5036182;28;20029;-80
2021/10/06 03:58:56;;;;;;;6.90;1.42;;;11.10;80.40;;;;;;5053450;28;20124;-80
2021/10/06 04:01:21;;;;;;;4.05;1.38;;;11.10;80.40;;;;;;5052246;28;20036;-80
2021/10/06 04:03:47;;;;;;;5.43;1.48;;;11.10;80.40;;;;;;5036065;28;20032;-80
2021/10/06 04:06:13;;;;;;;5.70;1.40;;;11.10;80.50;;;;;;5036094;28;20114;-80
2021/10/06 04:08:38;;;;;;;7.90;1.52;;;11.00;80.50;;;;;;5034527;28;20789;-81
2021/10/06 04:11:04;;;;;;;5.25;1.25;;;11.00;80.50;;;;;;5034676;28;20112;-81
2021/10/06 04:13:30;;;;;;;6.00;1.38;;;11.00;80.50;;;;;;5035924;28;20116;-80
2021/10/06 04:15:55;;;;;;;3.95;1.08;;;11.10;80.30;;;;;;5034108;28;20075;-80
2021/10/06 04:18:21;;;;;;;5.60;1.38;;;11.00;80.40;;;;;;5034605;28;20033;-81
2021/10/06 04:20:46;;;;;;;3.13;1.10;;;11.00;80.50;;;;;;5035899;28;20063;-81
2021/10/06 04:23:12;;;;;;;7.63;1.70;;;11.00;80.40;;;;;;5035799;28;20546;-80
2021/10/06 04:25:38;;;;;;;8.68;1.40;;;11.00;80.50;;;;;;5036018;28;20592;-81
2021/10/06 04:28:04;;;;;;;9.02;2.05;;;11.00;80.60;;;;;;5035677;28;20037;-81
2021/10/06 04:30:30;;;;;;;5.85;1.50;;;10.90;80.90;;;;;;5034378;28;20448;-80
2021/10/06 04:32:55;;;;;;;5.82;1.50;;;10.90;80.70;;;;;;5035655;28;20061;-80
2021/10/06 04:35:21;;;;;;;10.38;1.63;;;10.90;80.60;;;;;;5035695;28;20030;-80
2021/10/06 04:37:47;;;;;;;9.18;1.98;;;10.90;80.60;;;;;;5035482;28;20025;-80
2021/10/06 04:40:12;;;;;;;5.85;1.50;;;10.90;80.50;;;;;;5035351;28;20037;-80
2021/10/06 04:42:39;;;;;;;3.70;1.45;;;10.80;80.90;;;;;;5034140;28;20030;-83
2021/10/06 04:45:05;;;;;;;6.05;1.30;;;10.80;80.90;;;;;;5035677;28;20029;-85
2021/10/06 04:47:31;;;;;;;10.48;1.85;;;10.90;80.80;;;;;;5035407;28;20540;-87
2021/10/06 04:50:00;;;;;;;10.43;1.90;;;10.80;80.90;;;;;;5039007;28;20048;-87
2021/10/06 04:52:26;;;;;;;4.57;1.48;;;10.80;80.70;;;;;;5039278;28;20044;-84
2021/10/06 04:54:53;;;;;;;4.03;1.08;;;10.80;80.70;;;;;;5046659;28;20025;-81
2021/10/06 04:57:20;;;;;;;7.35;1.30;;;10.80;80.80;;;;;;5055449;28;20021;-81
2021/10/06 04:59:46;;;;;;;11.40;1.58;;;10.80;80.70;;;;;;5055431;28;20024;-80
2021/10/06 05:02:11;;;;;;;9.20;1.40;;;10.80;80.70;;;;;;5041460;28;20055;-81
2021/10/06 05:04:37;;;;;;;6.57;1.20;;;10.80;80.40;;;;;;5035221;28;20048;-84
2021/10/06 05:07:11;;;;;;;6.38;1.17;;;10.80;80.50;;;;;;5035365;28;20025;-81
2021/10/06 05:09:37;;;;;;;6.43;1.30;;;10.80;80.30;;;;;;5035280;28;20144;-81
2021/10/06 05:12:03;;;;;;;5.70;1.40;;;10.80;80.50;;;;;;5048828;28;20063;-83
2021/10/06 05:14:29;;;;;;;3.63;1.20;;;10.80;80.90;;;;;;5042613;28;20025;-84
2021/10/06 05:16:55;;;;;;;3.08;1.52;;;10.80;80.90;;;;;;5039142;28;20113;-82
2021/10/06 05:19:21;;;;;;;4.93;1.60;;;10.80;80.70;;;;;;5051376;28;20079;-82
2021/10/06 05:21:47;;;;;;;6.55;1.48;;;10.80;80.60;;;;;;5040147;28;20033;-88
2021/10/06 05:24:13;;;;;;;1.90;1.25;;;10.80;80.70;;;;;;5044333;28;20025;-87
2021/10/06 05:26:38;;;;;;;5.47;1.50;;;10.80;80.60;;;;;;5055940;28;20029;-85
2021/10/06 05:29:04;;;;;;;8.63;1.75;;;10.80;80.50;;;;;;5052684;28;20030;-91
2021/10/06 05:31:30;;;;;;;3.78;1.20;;;10.70;80.50;;;;;;5043651;28;20029;-91
2021/10/06 05:33:55;;;;;;;6.18;1.38;;;10.80;80.60;;;;;;5039861;28;20028;-90
2021/10/06 05:36:23;;;;;;;6.78;1.45;;;10.70;80.40;;;;;;5045554;28;20017;-90
2021/10/06 05:38:49;;;;;;;7.22;1.73;;;10.60;81.20;;;;;;5037684;28;20029;-90
2021/10/06 05:41:15;;;;;;;5.47;1.23;;;10.50;81.50;;;;;;5056805;28;20036;-90
2021/10/06 05:43:41;;;;;;;6.57;1.52;;;10.60;81.40;;;;;;5042515;28;20021;-90
2021/10/06 05:46:07;;;;;;;4.60;1.60;;;10.60;81.20;;;;;;5056309;28;20037;-89
2021/10/06 05:48:32;;;;;;;5.70;1.58;;;10.60;81.20;;;;;;5047190;28;20111;-90
2021/10/06 05:50:58;;;;;;;6.75;1.42;;;10.70;81.10;;;;;;5053334;28;20494;-90
2021/10/06 05:53:24;;;;;;;5.90;2.05;;;10.70;81.00;;;;;;5039285;28;20040;-89
2021/10/06 05:55:50;;;;;;;2.92;1.13;;;10.70;80.80;;;;;;5040519;28;20028;-89
2021/10/06 05:58:18;;;;;;;7.07;1.88;;;10.70;81.20;;;;;;5037667;28;20112;-87
2021/10/06 06:00:43;;;;;;;8.07;1.50;;;10.80;81.10;;;;;;5039232;28;20025;-87
2021/10/06 06:03:09;;;;;;;11.38;1.45;;;10.70;81.00;;;;;;5038484;28;20400;-88
2021/10/06 06:05:38;;;;;;;9.00;1.60;;;10.70;81.00;;;;;;5039499;28;20053;-88
2021/10/06 06:08:04;;;;;;;6.22;1.58;;;10.80;80.90;;;;;;5038716;28;20550;-87
2021/10/06 06:10:29;;;;;;;5.05;1.50;;;10.80;80.80;;;;;;5043058;28;20407;-90
2021/10/06 06:12:55;;;;;;;6.30;1.40;;;10.70;81.10;;;;;;5037536;28;20028;-88
2021/10/06 06:15:20;;;;;;;7.80;1.70;;;10.70;81.10;;;;;;5039681;28;20026;-88
2021/10/06 06:17:46;;;;;;;5.82;1.65;;;10.70;81.40;;;;;;5052683;28;20154;-88
2021/10/06 06:20:14;;;;;;;8.90;2.63;;;10.70;81.40;;;;;;5058687;28;20407;-89
2021/10/06 06:22:41;;;;;;;3.33;1.27;;;10.60;81.00;;;;;;5040883;28;20028;-89
2021/10/06 06:25:08;;;;;;;12.27;1.77;;;10.60;81.10;;;;;;5059744;28;20037;-88
2021/10/06 06:27:34;;;;;;;6.05;1.60;;;10.60;81.10;;;;;;5042202;28;20080;-89
2021/10/06 06:30:00;;;;;;;5.93;1.60;;;10.70;81.30;;;;;;5054286;28;20055;-89
2021/10/06 06:32:26;;;;;;;9.20;1.83;;;10.70;81.20;;;;;;5054084;28;20025;-86
2021/10/06 06:34:51;;;;;;;3.35;1.52;;;10.70;81.00;;;;;;5038612;28;20033;-88
2021/10/06 06:37:17;;;;;;;4.80;1.70;;;10.70;81.00;;;;;;5038408;28;20028;-89
2021/10/06 06:39:43;;;;;;;15.82;1.90;;;10.80;80.90;;;;;;5038559;28;20029;-88
2021/10/06 06:42:08;;;;;;;6.22;1.60;;;10.80;81.10;;;;;;5038674;28;20018;-89
2021/10/06 06:44:34;;;;;;;7.32;1.90;;;10.80;81.20;;;;;;5054047;28;20025;-89
2021/10/06 06:47:00;;;;;;;5.63;1.60;;;10.90;81.10;;;;;;5058350;28;20028;-90
2021/10/06 06:49:26;;;;;;;4.82;1.30;;;11.00;80.80;;;;;;5049588;28;20056;-89
2021/10/06 06:51:51;;;;;;;4.32;1.42;;;11.10;80.90;;;;;;5038516;28;20021;-89
2021/10/06 06:54:17;;;;;;;5.30;1.30;;;11.20;80.70;;;;;;5037083;28;20035;-89
2021/10/06 06:56:43;;;;;;;8.70;1.85;;;11.30;80.50;;;;;;5038489;28;20112;-88
2021/10/06 06:59:09;;;;;;;5.45;1.70;;;11.30;80.60;;;;;;5038066;28;20029;-88
2021/10/06 07:01:36;;;;;;;6.25;1.33;;;11.30;80.40;;;;;;5038046;28;20033;-88
2021/10/06 07:04:01;;;;;;;6.25;1.40;;;11.40;80.30;;;;;;5038232;28;20029;-87
2021/10/06 07:06:33;;;;;;;5.30;1.52;;;11.40;80.30;;;;;;5037150;28;20032;-88
2021/10/06 07:08:59;;;;;;;2.83;1.30;;;11.30;80.60;;;;;;5036573;28;20032;-89
2021/10/06 07:11:25;;;;;;;5.85;1.83;;;11.40;80.50;;;;;;5038008;28;20395;-89
2021/10/06 07:13:51;;;;;;;6.78;1.60;;;11.50;80.50;;;;;;5038359;28;20022;-89
2021/10/06 07:16:17;;;;;;;9.07;1.60;;;11.70;80.40;;;;;;5056711;28;20021;-87
2021/10/06 07:18:42;;;;;;;9.30;1.52;;;11.90;79.60;;;;;;5057740;28;20044;-88
2021/10/06 07:21:08;;;;;;;6.00;1.45;;;12.30;78.70;;;;;;5057992;28;20025;-89
2021/10/06 07:23:34;;;;;;;12.10;1.92;;;12.60;77.70;;;;;;5044065;28;20069;-89
2021/10/06 07:26:00;;;;;;;4.43;1.55;;;12.80;76.80;;;;;;5053642;28;20025;-89
2021/10/06 07:28:25;;;;;;;6.20;1.67;;;13.10;76.10;;;;;;5045126;28;20043;-90
2021/10/06 07:30:51;;;;;;;9.05;1.55;;;13.30;75.20;;;;;;5042576;28;20037;-89
2021/10/06 07:33:17;;;;;;;4.72;1.00;;;13.50;74.70;;;;;;5036542;28;20029;-89
2021/10/06 07:35:43;;;;;;;9.05;1.50;;;13.60;74.20;;;;;;5038068;28;20025;-86
2021/10/06 07:38:09;;;;;;;6.60;1.60;;;13.60;74.80;;;;;;5037446;28;20116;-89
2021/10/06 07:40:35;;;;;;;4.93;1.40;;;13.70;74.80;;;;;;5035952;28;20101;-89
2021/10/06 07:43:01;;;;;;;8.20;1.92;;;13.90;74.10;;;;;;5038692;28;20510;-89
2021/10/06 07:45:27;;;;;;;7.22;1.60;;;14.00;74.20;;;;;;5056120;28;20025;-89
2021/10/06 07:47:52;;;;;;;8.35;1.13;;;13.80;74.60;;;;;;5057131;28;20045;-88
2021/10/06 07:50:18;;;;;;;11.00;1.60;;;13.70;74.70;;;;;;5050111;28;20014;-88
2021/10/06 07:52:44;;;;;;;6.88;1.65;;;13.50;75.60;;;;;;5036816;28;20025;-88
2021/10/06 07:55:09;;;;;;;8.95;1.70;;;13.40;76.10;;;;;;5037259;28;20517;-90
2021/10/06 07:57:35;;;;;;;9.75;1.83;;;13.40;76.60;;;;;;5050490;28;20041;-88
2021/10/06 08:00:03;;;;;;;11.63;1.40;;;13.40;76.70;;;;;;5037266;28;20484;-89
2021/10/06 08:02:28;;;;;;;4.22;1.50;;;13.30;77.00;;;;;;5037040;28;20029;-87
2021/10/06 08:04:54;;;;;;;4.15;1.40;;;13.40;77.30;;;;;;5036744;28;20167;-89
2021/10/06 08:07:20;;;;;;;5.07;1.38;;;13.40;77.50;;;;;;5036724;28;20059;-87
2021/10/06 08:09:45;;;;;;;8.88;1.52;;;13.50;77.70;;;;;;5035506;28;20109;-88
2021/10/06 08:12:11;;;;;;;4.45;1.23;;;13.50;77.60;;;;;;5036573;28;20048;-86
2021/10/06 08:14:38;;;;;;;12.00;1.77;;;13.50;77.50;;;;;;5035601;28;20041;-87
2021/10/06 08:17:04;;;;;;;6.55;1.55;;;13.50;77.80;;;;;;5034977;28;20049;-87
2021/10/06 08:19:30;;;;;;;14.65;1.38;;;13.60;77.60;;;;;;5036427;28;20104;-88
2021/10/06 08:21:55;;;;;;;4.15;1.20;;;13.60;77.40;;;;;;5036185;28;20064;-86
2021/10/06 08:24:21;;;;;;;8.15;1.85;;;13.70;77.90;;;;;;5036456;28;20034;-88
2021/10/06 08:26:47;;;;;;;4.68;1.08;;;13.80;77.40;;;;;;5056161;28;20507;-88
2021/10/06 08:29:13;;;;;;;4.70;1.02;;;14.10;77.10;;;;;;5056080;28;20048;-87
2021/10/06 08:31:40;;;;;;;5.72;1.38;;;14.30;76.50;;;;;;5051408;28;20035;-87
2021/10/06 08:34:06;;;;;;;8.27;1.80;;;14.50;76.30;;;;;;5034787;28;20026;-87
2021/10/06 08:36:33;;;;;;;7.20;1.75;;;14.50;76.00;;;;;;5034894;28;20037;-88
2021/10/06 08:39:00;;;;;;;5.15;1.15;;;14.40;76.00;;;;;;5035775;28;20029;-86
2021/10/06 08:41:26;;;;;;;6.30;1.30;;;14.30;76.50;;;;;;5035987;28;20056;-86
2021/10/06 08:43:51;;;;;;;3.72;1.40;;;14.30;76.60;;;;;;5045050;28;20037;-86
2021/10/06 08:46:18;;;;;;;2.42;1.10;;;14.30;76.50;;;;;;5046970;28;20089;-86
2021/10/06 08:48:43;;;;;;;8.52;1.52;;;14.30;76.60;;;;;;5035440;28;20088;-87
2021/10/06 08:51:09;;;;;;;2.90;1.05;;;14.30;77.00;;;;;;5035976;28;20022;-87
2021/10/06 08:53:35;;;;;;;10.10;1.35;;;14.40;76.50;;;;;;5037280;28;20021;-87
2021/10/06 08:56:00;;;;;;;5.45;1.48;;;14.50;76.90;;;;;;5055882;28;20067;-87
2021/10/06 08:58:26;;;;;;;6.07;1.80;;;14.50;77.00;;;;;;5054352;28;20036;-88
2021/10/06 09:00:59;;;;;;;7.68;1.50;;;14.60;76.80;;;;;;5055600;28;20029;-87
2021/10/06 09:03:32;;;;;;;4.55;1.40;;;14.70;77.30;;;;;;5055674;28;20033;-86
2021/10/06 09:06:05;;;;;;;4.63;1.45;;;14.80;76.10;;;;;;5054151;28;20120;-87
2021/10/06 09:08:32;;;;;;;7.13;1.77;;;14.90;75.90;;;;;;5050490;28;20041;-86
2021/10/06 09:10:59;;;;;;;5.43;1.73;;;15.00;75.90;;;;;;5034294;28;20092;-86
2021/10/06 09:13:27;;;;;;;10.00;1.77;;;15.00;75.50;;;;;;5034219;28;20061;-87
2021/10/06 09:15:53;;;;;;;5.85;1.80;;;15.00;75.50;;;;;;5035338;28;20468;-86
2021/10/06 09:18:23;;;;;;;4.90;1.52;;;15.10;76.10;;;;;;5035147;28;20083;-87
2021/10/06 09:20:50;;;;;;;6.55;2.10;;;15.10;75.50;;;;;;5050852;28;20037;-87
2021/10/06 09:23:20;;;;;;;8.65;1.85;;;15.20;75.40;;;;;;5050763;28;20033;-87
2021/10/06 09:26:00;;;;;;;7.77;2.40;;;15.20;75.00;;;;;;5065339;28;20650;-87
2021/10/06 09:28:32;;;;;;;9.73;2.58;;;15.30;75.50;;;;;;5039503;28;20022;-88
2021/10/06 09:31:00;;;;;;;10.40;2.72;;;15.30;75.20;;;;;;5039265;28;20032;-87
2021/10/06 09:33:43;;;;;;;6.00;1.90;;;15.50;75.30;;;;;;5038095;28;20021;-88
2021/10/06 09:36:13;;;;;;;11.18;1.60;;;15.60;74.80;;;;;;5051533;28;20059;-88
2021/10/06 09:38:42;;;;;;;7.30;1.88;;;15.70;73.80;;;;;;5039596;28;20029;-88
2021/10/06 09:41:39;;;;;;;9.23;1.88;;;15.70;74.00;;;;;;5038069;28;20045;-88
2021/10/06 09:44:20;;;;;;;6.80;1.42;;;15.80;74.30;;;;;;5038872;28;20516;-88
2021/10/06 09:46:52;;;;;;;5.43;1.88;;;15.80;73.80;;;;;;5039119;28;20664;-87
2021/10/06 09:49:18;;;;;;;7.32;1.80;;;15.80;73.30;;;;;;5038875;28;20089;-87
2021/10/06 09:51:44;;;;;;;10.05;1.98;;;15.80;73.40;;;;;;5039328;28;20049;-88
2021/10/06 09:54:10;;;;;;;6.78;1.60;;;15.90;73.00;;;;;;5039009;28;20095;-89
2021/10/06 09:56:43;;;;;;;4.60;1.27;;;15.80;73.30;;;;;;5038900;28;20033;-88
2021/10/06 09:59:12;;;;;;;5.38;1.50;;;15.90;73.50;;;;;;5038899;28;20041;-87
2021/10/06 10:01:40;;;;;;;4.50;1.20;;;16.00;73.70;;;;;;5037612;28;20029;-87
2021/10/06 10:04:10;;;;;;;7.63;1.85;;;16.00;73.80;;;;;;5038570;28;20029;-87
2021/10/06 10:06:37;;;;;;;5.07;1.55;;;15.90;73.20;;;;;;5041524;28;20028;-88
2021/10/06 10:09:05;;;;;;;5.25;1.10;;;15.90;73.10;;;;;;5048388;28;20022;-88
2021/10/06 10:11:33;;;;;;;9.98;1.60;;;16.00;72.40;;;;;;5047000;28;20033;-87
2021/10/06 10:13:59;;;;;;;4.90;1.20;;;16.10;72.60;;;;;;5041432;28;20044;-87
2021/10/06 10:16:25;;;;;;;4.72;0.82;;;16.20;72.10;;;;;;5037543;28;20040;-88
2021/10/06 10:18:52;;;;;;;5.18;0.80;;;16.30;71.80;;;;;;5037792;28;20021;-87
2021/10/06 10:21:18;;;;;;;4.95;1.00;;;16.40;71.30;;;;;;5041545;28;20041;-90
2021/10/06 10:23:44;;;;;;;2.42;0.70;;;16.40;70.70;;;;;;5037494;28;20083;-89
2021/10/06 10:26:24;;;;;;;4.32;0.80;;;16.50;70.70;;;;;;5037183;28;20029;-89
2021/10/06 10:28:50;;;;;;;4.38;0.82;;;16.50;70.20;;;;;;5038461;28;20557;-88
2021/10/06 10:31:18;;;;;;;3.67;0.85;;;16.60;70.20;;;;;;5054332;28;20132;-90
2021/10/06 10:33:48;;;;;;;6.10;1.25;;;16.50;68.90;;;;;;5054369;28;20044;-88
2021/10/06 10:36:31;;;;;;;2.70;1.00;;;16.60;69.30;;;;;;5047384;28;20025;-88
2021/10/06 10:38:56;;;;;;;8.13;1.48;;;16.70;69.10;;;;;;5041081;28;20056;-89
2021/10/06 10:41:47;;;;;;;5.05;1.70;;;16.80;69.80;;;;;;5038203;28;20096;-89
2021/10/06 10:44:23;;;;;;;4.22;1.33;;;16.80;69.20;;;;;;5038218;28;20053;-89
2021/10/06 10:46:59;;;;;;;6.63;1.13;;;16.90;69.20;;;;;;5038380;28;20033;-89
2021/10/06 10:49:25;;;;;;;5.13;1.33;;;16.90;68.10;;;;;;5038355;28;20030;-88
2021/10/06 10:51:57;;;;;;;5.50;1.23;;;17.00;68.30;;;;;;5036895;28;20759;-89
2021/10/06 10:54:34;;;;;;;5.72;0.95;;;17.10;68.00;;;;;;5038441;28;20069;-89
2021/10/06 10:57:05;;;;;;;2.05;0.73;;;17.00;64.70;;;;;;5038287;28;20021;-88
2021/10/06 10:59:44;;;;;;;1.58;0.70;;;17.10;65.10;;;;;;5038605;28;20021;-88
2021/10/06 11:02:32;;;;;;;3.45;0.90;;;17.20;64.50;;;;;;5038478;28;20060;-88
2021/10/06 11:05:05;;;;;;;3.42;1.35;;;17.20;64.30;;;;;;5037399;28;20029;-90
2021/10/06 11:07:31;;;;;;;4.88;1.15;;;17.20;63.80;;;;;;5038756;28;20034;-88
2021/10/06 11:09:57;;;;;;;7.90;1.80;;;17.30;63.20;;;;;;5041184;28;20022;-89
2021/10/06 11:12:23;;;;;;;2.95;0.60;;;17.30;64.20;;;;;;5037971;28;20089;-88
2021/10/06 11:15:20;;;;;;;5.30;0.70;;;17.40;63.60;;;;;;5037875;28;20427;-90
2021/10/06 11:18:18;;;;;;;4.50;1.05;;;17.50;63.10;;;;;;5053348;28;20029;-88
2021/10/06 11:20:46;;;;;;;3.58;0.90;;;17.40;62.80;;;;;;5037561;28;20033;-86
2021/10/06 11:23:30;;;;;;;6.57;0.77;;;17.50;63.60;;;;;;5055965;28;20029;-89
2021/10/06 11:26:01;;;;;;;3.33;0.98;;;17.60;62.50;;;;;;5053790;28;20026;-88
2021/10/06 11:28:28;;;;;;;4.25;0.68;;;17.80;62.00;;;;;;5037401;28;20068;-89
2021/10/06 11:30:58;;;;;;;5.38;1.17;;;17.90;62.10;;;;;;5037678;28;20045;-89
2021/10/06 11:33:28;;;;;;;3.63;0.82;;;18.10;61.40;;;;;;5048477;28;20452;-90
2021/10/06 11:36:25;;;;;;;6.57;0.95;;;18.10;59.10;;;;;;5057784;28;20036;-89
2021/10/06 11:39:11;;;;;;;3.03;0.57;;;18.20;59.60;;;;;;5052405;28;20445;-88
2021/10/06 11:41:44;;;;;;;4.20;0.80;;;18.00;59.50;;;;;;5037575;28;20085;-88
2021/10/06 11:44:14;;;;;;;4.05;0.80;;;17.70;59.10;;;;;;5036800;28;20032;-90
2021/10/06 11:46:39;;;;;;;4.57;0.95;;;17.60;60.50;;;;;;5037299;28;20029;-89
2021/10/06 11:49:07;;;;;;;3.38;0.70;;;17.60;60.70;;;;;;5049607;28;20120;-88
2021/10/06 11:51:44;;;;;;;2.80;1.30;;;17.70;60.70;;;;;;5037076;28;20017;-88
2021/10/06 11:54:10;;;;;;;3.92;0.70;;;17.80;61.80;;;;;;5054215;28;20032;-88
2021/10/06 11:56:36;;;;;;;4.97;0.90;;;17.80;61.40;;;;;;5056042;28;20078;-88
2021/10/06 11:59:12;;;;;;;4.43;1.27;;;17.80;60.60;;;;;;5055240;28;20080;-89
2021/10/06 12:01:40;;;;;;;3.38;1.00;;;18.10;60.50;;;;;;5052246;28;20035;-88
2021/10/06 12:04:14;;;;;;;3.03;0.93;;;18.00;60.40;;;;;;5035570;28;20036;-88
2021/10/06 12:06:42;;;;;;;4.40;0.80;;;18.10;58.70;;;;;;5036996;28;20028;-89
2021/10/06 12:09:09;;;;;;;4.68;1.10;;;18.30;57.70;;;;;;5036503;28;20034;-89
2021/10/06 12:11:40;;;;;;;3.20;0.85;;;18.00;59.10;;;;;;5035784;28;20025;-90
2021/10/06 12:14:31;;;;;;;4.93;1.00;;;17.80;59.10;;;;;;5036547;28;20026;-88
2021/10/06 12:17:04;;;;;;;1.27;0.50;;;17.50;58.60;;;;;;5035680;28;20122;-88
2021/10/06 12:19:30;;;;;;;2.22;0.70;;;17.30;59.10;;;;;;5035793;28;20025;-88
2021/10/06 12:21:56;;;;;;;1.30;0.52;;;17.30;59.60;;;;;;5037027;28;20037;-85
2021/10/06 12:24:25;;;;;;;4.30;1.00;;;17.50;58.90;;;;;;5044677;28;20032;-85
2021/10/06 12:26:52;;;;;;;5.40;0.98;;;17.40;59.00;;;;;;5067245;28;20032;-88
2021/10/06 12:29:21;;;;;;;3.90;1.30;;;17.40;59.40;;;;;;5054637;28;20025;-87
2021/10/06 12:31:47;;;;;;;2.67;0.70;;;17.60;59.70;;;;;;5040125;28;20014;-87
2021/10/06 12:34:21;;;;;;;5.55;0.80;;;17.70;58.40;;;;;;5038884;28;20036;-88
2021/10/06 12:36:50;;;;;;;2.28;0.75;;;17.70;58.10;;;;;;5045075;28;20025;-89
2021/10/06 12:39:23;;;;;;;1.08;0.82;;;17.60;59.20;;;;;;5043088;28;20029;-87
2021/10/06 12:41:54;;;;;;;4.18;0.93;;;17.40;57.80;;;;;;5046049;28;20031;-87
2021/10/06 12:44:25;;;;;;;8.00;2.00;;;17.50;59.20;;;;;;5039692;28;20083;-88
2021/10/06 12:46:52;;;;;;;3.13;0.60;;;17.70;58.50;;;;;;5039747;28;20045;-86